createdAt,value
2022-08-26T00:01:47.792Z,90.50
2022-08-26T00:06:50.230Z,90.40
2022-08-26T00:11:55.548Z,90.60
2022-08-26T00:17:08.656Z,90.70
2022-08-26T00:22:11.318Z,91.00
2022-08-26T00:27:15.014Z,90.90
2022-08-26T00:32:17.896Z,91.10
2022-08-26T00:37:20.083Z,90.70
2022-08-26T00:42:23.694Z,90.70
2022-08-26T00:47:31.347Z,91.00
2022-08-26T00:52:45.698Z,91.10
2022-08-26T00:57:55.004Z,91.20
2022-08-26T01:02:58.509Z,91.20
2022-08-26T01:08:01.094Z,91.00
2022-08-26T01:13:11.239Z,90.90
2022-08-26T01:18:15.703Z,91.10
2022-08-26T01:23:19.364Z,91.40
2022-08-26T01:28:29.592Z,91.60
2022-08-26T01:33:42.026Z,91.70
2022-08-26T01:38:46.312Z,91.70
2022-08-26T01:43:51.980Z,91.50
2022-08-26T01:49:08.506Z,91.40
2022-08-26T01:54:15.124Z,91.40
2022-08-26T01:59:20.232Z,91.60
2022-08-26T02:04:27.207Z,91.70
2022-08-26T02:09:30.919Z,91.50
2022-08-26T02:14:43.762Z,91.20
2022-08-26T02:19:49.958Z,91.60
2022-08-26T02:24:55.925Z,91.30
2022-08-26T02:30:01.526Z,91.20
2022-08-26T02:35:03.628Z,91.30
2022-08-26T02:40:09.213Z,91.30
2022-08-26T02:45:16.356Z,91.50
2022-08-26T02:50:25.922Z,91.30
2022-08-26T02:55:29.386Z,91.40
2022-08-26T03:00:32.048Z,91.30
2022-08-26T03:05:34.851Z,92.10
2022-08-26T03:10:38.399Z,91.80
2022-08-26T03:15:40.869Z,92.20
2022-08-26T03:20:42.936Z,91.80
2022-08-26T03:25:50.238Z,91.70
2022-08-26T03:30:52.944Z,92.00
2022-08-26T03:35:55.907Z,92.40
2022-08-26T03:41:00.726Z,92.70
2022-08-26T03:46:06.039Z,92.90
2022-08-26T03:51:14.605Z,92.90
2022-08-26T03:56:25.333Z,92.90
2022-08-26T04:01:29.280Z,93.10
2022-08-26T04:06:35.383Z,92.80
2022-08-26T04:11:40.477Z,93.10
2022-08-26T04:16:43.897Z,93.00
2022-08-26T04:21:47.395Z,92.80
2022-08-26T04:26:52.025Z,92.60
2022-08-26T04:31:56.113Z,92.80
2022-08-26T04:36:58.775Z,92.60
2022-08-26T04:42:02.574Z,92.40
2022-08-26T04:47:05.065Z,92.70
2022-08-26T04:52:07.280Z,92.70
2022-08-26T04:57:13.395Z,92.10
2022-08-26T05:02:16.373Z,91.80
2022-08-26T05:07:18.508Z,91.60
2022-08-26T05:12:23.387Z,91.10
2022-08-26T05:17:27.281Z,90.70
2022-08-26T05:22:29.451Z,90.10
2022-08-26T05:27:32.986Z,87.30
2022-08-26T05:32:35.090Z,85.60
2022-08-26T05:37:39.195Z,84.70
2022-08-26T05:42:42.858Z,83.90
2022-08-26T05:47:48.189Z,82.40
2022-08-26T05:52:53.137Z,82.90
2022-08-26T05:57:57.378Z,83.10
2022-08-26T06:03:00.149Z,83.00
2022-08-26T06:08:14.555Z,83.00
2022-08-26T06:13:19.476Z,83.40
2022-08-26T06:18:24.036Z,83.10
2022-08-26T06:23:47.486Z,84.30
2022-08-26T06:28:55.500Z,84.60
2022-08-26T06:33:58.505Z,85.00
2022-08-26T06:39:03.473Z,84.90
2022-08-26T06:44:08.638Z,84.80
2022-08-26T06:49:11.156Z,84.10
2022-08-26T06:54:13.433Z,84.30
2022-08-26T06:59:17.276Z,85.10
2022-08-26T07:04:24.665Z,83.70
2022-08-26T07:09:30.446Z,82.90
2022-08-26T07:14:35.677Z,82.60
2022-08-26T07:19:37.818Z,82.30
2022-08-26T07:24:42.327Z,81.50
2022-08-26T07:29:46.221Z,81.30
2022-08-26T07:34:48.539Z,81.20
2022-08-26T07:39:51.383Z,80.60
2022-08-26T07:44:55.700Z,80.20
2022-08-26T07:49:58.591Z,80.00
2022-08-26T07:55:04.431Z,80.40
2022-08-26T08:00:11.591Z,79.00
2022-08-26T08:05:16.688Z,78.10
2022-08-26T08:10:22.543Z,77.10
2022-08-26T08:15:35.505Z,74.90
2022-08-26T08:20:37.989Z,75.40
2022-08-26T08:25:40.072Z,74.20
2022-08-26T08:30:43.786Z,73.10
2022-08-26T08:35:46.755Z,71.40
2022-08-26T08:40:49.211Z,70.80
2022-08-26T08:45:58.991Z,68.60
2022-08-26T08:51:09.363Z,69.30
2022-08-26T08:56:20.629Z,68.10
2022-08-26T09:01:45.007Z,68.20
2022-08-26T09:06:49.978Z,66.50
2022-08-26T09:11:52.760Z,66.80
2022-08-26T09:17:00.035Z,66.30
2022-08-26T09:22:09.404Z,65.30
2022-08-26T09:27:14.409Z,65.30
2022-08-26T09:32:22.121Z,65.40
2022-08-26T09:37:42.915Z,64.90
2022-08-26T09:42:45.751Z,63.90
2022-08-26T09:47:57.258Z,61.30
2022-08-26T09:53:17.450Z,60.70
2022-08-26T09:58:35.552Z,58.60
2022-08-26T10:03:41.022Z,57.80
2022-08-26T10:08:48.008Z,55.80
2022-08-26T10:13:56.873Z,56.00
2022-08-26T10:19:03.239Z,55.40
2022-08-26T10:24:11.648Z,54.40
2022-08-26T10:29:19.876Z,51.80
2022-08-26T10:34:24.220Z,52.10
2022-08-26T10:39:33.400Z,52.10
2022-08-26T10:44:38.574Z,49.80
2022-08-26T10:49:48.244Z,51.50
2022-08-26T10:55:00.757Z,51.20
2022-08-26T11:00:27.437Z,51.10
2022-08-26T11:05:29.791Z,51.70
2022-08-26T11:11:08.384Z,49.40
2022-08-26T11:16:10.509Z,49.00
2022-08-26T11:21:46.061Z,49.80
2022-08-26T11:26:55.941Z,50.40
2022-08-26T11:31:59.110Z,50.20
2022-08-26T11:37:05.115Z,51.10
2022-08-26T11:42:23.376Z,50.10
2022-08-26T11:47:30.221Z,49.30
2022-08-26T11:52:32.433Z,48.00
2022-08-26T11:57:41.757Z,46.20
2022-08-26T12:02:43.923Z,46.70
2022-08-26T12:07:51.082Z,45.20
2022-08-26T12:12:59.101Z,44.20
2022-08-26T12:18:28.907Z,44.20
2022-08-26T12:23:41.858Z,43.50
2022-08-26T12:28:49.627Z,43.20
2022-08-26T12:33:52.566Z,42.80
2022-08-26T12:38:58.436Z,43.10
2022-08-26T12:44:02.162Z,42.70
2022-08-26T12:49:04.408Z,41.50
2022-08-26T12:54:07.276Z,41.10
2022-08-26T12:59:25.067Z,39.50
2022-08-26T13:04:38.629Z,38.60
2022-08-26T13:09:41.093Z,37.70
2022-08-26T13:14:46.588Z,39.10
2022-08-26T13:19:48.844Z,38.10
2022-08-26T13:24:53.589Z,36.00
2022-08-26T13:29:59.152Z,36.60
2022-08-26T13:35:05.570Z,35.40
2022-08-26T13:40:09.011Z,33.20
2022-08-26T13:45:17.603Z,33.50
2022-08-26T13:50:19.757Z,34.50
2022-08-26T13:55:22.057Z,36.00
2022-08-26T14:00:25.605Z,35.90
2022-08-26T14:05:27.983Z,35.10
2022-08-26T14:10:30.983Z,33.70
2022-08-26T14:15:36.666Z,34.70
2022-08-26T14:20:39.655Z,35.00
2022-08-26T14:25:41.939Z,33.60
2022-08-26T14:30:47.820Z,31.30
2022-08-26T14:35:49.990Z,30.00
2022-08-26T14:40:52.449Z,29.30
2022-08-26T14:45:56.154Z,29.00
2022-08-26T14:50:58.324Z,28.50
2022-08-26T14:56:00.627Z,28.60
2022-08-26T15:01:05.917Z,30.30
2022-08-26T15:06:10.716Z,31.20
2022-08-26T15:11:18.892Z,32.40
2022-08-26T15:16:29.748Z,33.20
2022-08-26T15:21:36.159Z,33.80
2022-08-26T15:26:43.485Z,34.50
2022-08-26T15:31:51.000Z,35.90
2022-08-26T15:36:59.745Z,34.60
2022-08-26T15:42:03.508Z,34.50
2022-08-26T15:47:11.907Z,33.90
2022-08-26T15:52:16.035Z,34.50
2022-08-26T15:57:21.226Z,34.90
2022-08-26T16:02:32.191Z,35.10
2022-08-26T16:07:35.403Z,35.60
2022-08-26T16:12:40.631Z,35.30
2022-08-26T16:17:49.944Z,35.30
2022-08-26T16:22:53.774Z,35.20
2022-08-26T16:27:58.792Z,35.90
2022-08-26T16:33:07.732Z,36.30
2022-08-26T16:38:17.858Z,37.30
2022-08-26T16:43:23.241Z,38.50
2022-08-26T16:48:35.987Z,38.50
2022-08-26T16:53:39.056Z,39.40
2022-08-26T16:58:46.185Z,39.80
2022-08-26T17:03:55.105Z,40.30
2022-08-26T17:09:08.841Z,40.80
2022-08-26T17:14:16.514Z,40.40
2022-08-26T17:19:26.138Z,39.80
2022-08-26T17:24:33.830Z,39.80
2022-08-26T17:29:42.629Z,38.90
2022-08-26T17:34:50.754Z,39.00
2022-08-26T17:39:58.763Z,38.90
2022-08-26T17:45:12.361Z,39.10
2022-08-26T17:50:21.589Z,44.40
2022-08-26T17:55:26.285Z,45.80
2022-08-26T18:00:37.786Z,46.90
2022-08-26T18:05:56.827Z,49.20
2022-08-26T18:11:02.664Z,51.00
2022-08-26T18:16:15.727Z,51.50
2022-08-26T18:21:22.431Z,52.00
2022-08-26T18:26:32.669Z,53.00
2022-08-26T18:31:37.879Z,54.30
2022-08-26T18:37:03.050Z,54.40
2022-08-26T18:42:09.517Z,55.30
2022-08-26T18:47:12.458Z,56.20
2022-08-26T18:52:18.946Z,58.00
2022-08-26T18:57:21.797Z,60.10
2022-08-26T19:02:24.693Z,61.90
2022-08-26T19:07:31.335Z,61.70
2022-08-26T19:12:33.663Z,62.70
2022-08-26T19:17:36.395Z,62.20
2022-08-26T19:22:41.903Z,60.70
2022-08-26T19:27:47.698Z,62.20
2022-08-26T19:32:50.983Z,61.80
2022-08-26T19:37:54.794Z,61.70
2022-08-26T19:43:04.606Z,63.80
2022-08-26T19:48:08.743Z,64.50
2022-08-26T19:53:17.807Z,64.60
2022-08-26T19:58:20.434Z,65.10
2022-08-26T20:03:27.461Z,65.00
2022-08-26T20:08:37.289Z,65.00
2022-08-26T20:13:49.240Z,64.90
2022-08-26T20:19:20.312Z,64.60
2022-08-26T20:24:33.121Z,64.60
2022-08-26T20:29:38.374Z,64.70
2022-08-26T20:34:44.459Z,64.50
2022-08-26T20:39:52.059Z,64.10
2022-08-26T20:45:06.990Z,64.10
2022-08-26T20:50:15.785Z,64.40
2022-08-26T20:55:23.208Z,64.30
2022-08-26T21:00:30.506Z,64.50
2022-08-26T21:05:38.780Z,64.90
2022-08-26T21:10:46.715Z,65.10
2022-08-26T21:15:52.225Z,65.60
2022-08-26T21:21:00.720Z,66.00
2022-08-26T21:26:09.486Z,66.40
2022-08-26T21:31:17.432Z,67.00
2022-08-26T21:36:24.535Z,67.50
2022-08-26T21:41:32.798Z,67.70
2022-08-26T21:46:39.638Z,68.30
2022-08-26T21:51:48.324Z,68.50
2022-08-26T21:56:59.285Z,69.20
2022-08-26T22:02:02.851Z,69.80
2022-08-26T22:07:08.864Z,70.30
2022-08-26T22:12:18.864Z,70.30
2022-08-26T22:17:30.019Z,70.70
2022-08-26T22:22:38.276Z,71.10
2022-08-26T22:27:42.799Z,71.80
2022-08-26T22:32:47.338Z,71.70
2022-08-26T22:37:50.350Z,71.90
2022-08-26T22:43:05.399Z,72.30
2022-08-26T22:48:11.040Z,72.60
2022-08-26T22:53:14.802Z,73.10
2022-08-26T22:58:34.394Z,74.20
2022-08-26T23:03:39.922Z,74.60
2022-08-26T23:08:49.792Z,75.10
2022-08-26T23:13:56.647Z,75.10
2022-08-26T23:19:01.712Z,75.30
2022-08-26T23:24:07.938Z,76.60
2022-08-26T23:29:18.020Z,76.50
2022-08-26T23:34:44.127Z,77.00
2022-08-26T23:39:56.007Z,77.00
2022-08-26T23:45:15.277Z,76.00
2022-08-26T23:50:21.210Z,75.90
2022-08-26T23:55:24.790Z,76.10
